sensor_id;sensor_type;location;lat;lon;timestamp;pressure;altitude;pressure_sealevel;temperature;humidity
85458;BME280;75848;42.706;23.292;2024-03-29T00:02:11;94815.75;;;12.02;46.85
85458;BME280;75848;42.706;23.292;2024-03-29T00:05:20;94853.72;;;12.18;46.52
85458;BME280;75848;42.706;23.292;2024-03-29T00:08:29;94831.00;;;11.99;47.11
85458;BME280;75848;42.706;23.292;2024-03-29T00:11:26;94868.81;;;11.94;47.50
85458;BME280;75848;42.706;23.292;2024-03-29T00:14:48;94860.00;;;11.77;47.68
85458;BME280;75848;42.706;23.292;2024-03-29T00:17:31;94839.19;;;11.58;48.13
85458;BME280;75848;42.706;23.292;2024-03-29T00:20:41;94857.81;;;11.85;47.09
85458;BME280;75848;42.706;23.292;2024-03-29T00:23:22;94855.66;;;11.92;46.68
85458;BME280;75848;42.706;23.292;2024-03-29T00:26:01;94866.66;;;12.01;46.94
85458;BME280;75848;42.706;23.292;2024-03-29T00:28:48;94860.00;;;11.90;46.80
85458;BME280;75848;42.706;23.292;2024-03-29T00:31:33;94855.66;;;11.80;47.25
85458;BME280;75848;42.706;23.292;2024-03-29T00:34:45;94880.59;;;12.03;46.80
85458;BME280;75848;42.706;23.292;2024-03-29T00:37:32;94880.47;;;12.07;47.14
85458;BME280;75848;42.706;23.292;2024-03-29T00:40:04;94872.94;;;11.98;46.62
85458;BME280;75848;42.706;23.292;2024-03-29T00:42:40;94868.72;;;11.97;46.49
85458;BME280;75848;42.706;23.292;2024-03-29T00:46:03;94857.94;;;11.94;46.30
85458;BME280;75848;42.706;23.292;2024-03-29T00:48:34;94886.88;;;12.00;46.62
85458;BME280;75848;42.706;23.292;2024-03-29T00:51:13;94875.56;;;11.89;46.84
85458;BME280;75848;42.706;23.292;2024-03-29T00:54:01;94885.91;;;12.07;46.51
85458;BME280;75848;42.706;23.292;2024-03-29T00:56:37;94879.38;;;12.04;46.23
85458;BME280;75848;42.706;23.292;2024-03-29T00:59:06;94872.53;;;12.00;46.27
85458;BME280;75848;42.706;23.292;2024-03-29T01:01:37;94891.16;;;12.14;45.58
85458;BME280;75848;42.706;23.292;2024-03-29T01:04:08;94890.72;;;12.15;45.72
85458;BME280;75848;42.706;23.292;2024-03-29T01:06:42;94872.44;;;12.03;45.52
85458;BME280;75848;42.706;23.292;2024-03-29T01:09:13;94886.47;;;12.14;45.80
85458;BME280;75848;42.706;23.292;2024-03-29T01:11:40;94875.47;;;12.05;46.00
85458;BME280;75848;42.706;23.292;2024-03-29T01:14:17;94847.75;;;11.98;45.63
85458;BME280;75848;42.706;23.292;2024-03-29T01:16:51;94863.63;;;12.12;45.64
85458;BME280;75848;42.706;23.292;2024-03-29T01:19:18;94851.63;;;11.97;45.94
85458;BME280;75848;42.706;23.292;2024-03-29T01:21:54;94877.84;;;12.16;45.11
85458;BME280;75848;42.706;23.292;2024-03-29T01:24:21;94884.41;;;12.18;45.46
85458;BME280;75848;42.706;23.292;2024-03-29T01:26:49;94882.78;;;12.21;45.63
85458;BME280;75848;42.706;23.292;2024-03-29T01:29:20;94887.22;;;12.15;45.41
85458;BME280;75848;42.706;23.292;2024-03-29T01:32:24;94863.72;;;11.96;46.05
85458;BME280;75848;42.706;23.292;2024-03-29T01:34:52;94871.22;;;12.04;45.29
85458;BME280;75848;42.706;23.292;2024-03-29T01:40:27;94879.38;;;12.04;45.52
85458;BME280;75848;42.706;23.292;2024-03-29T01:42:53;94888.00;;;12.15;46.07
85458;BME280;75848;42.706;23.292;2024-03-29T01:45:26;94888.88;;;12.12;45.67
85458;BME280;75848;42.706;23.292;2024-03-29T01:47:51;94893.88;;;12.14;45.81
85458;BME280;75848;42.706;23.292;2024-03-29T01:50:18;94886.25;;;12.09;45.78
85458;BME280;75848;42.706;23.292;2024-03-29T01:53:07;94901.25;;;12.01;46.15
85458;BME280;75848;42.706;23.292;2024-03-29T01:55:39;94909.16;;;11.95;46.09
85458;BME280;75848;42.706;23.292;2024-03-29T01:58:26;94914.47;;;11.86;47.36
85458;BME280;75848;42.706;23.292;2024-03-29T02:00:57;94927.53;;;11.79;46.52
85458;BME280;75848;42.706;23.292;2024-03-29T02:03:34;94943.06;;;11.78;46.23
85458;BME280;75848;42.706;23.292;2024-03-29T02:06:06;94953.16;;;11.78;47.63
85458;BME280;75848;42.706;23.292;2024-03-29T02:08:43;94947.44;;;11.88;47.01
85458;BME280;75848;42.706;23.292;2024-03-29T02:11:34;94959.59;;;11.84;47.62
85458;BME280;75848;42.706;23.292;2024-03-29T02:14:21;94971.25;;;11.84;47.65
85458;BME280;75848;42.706;23.292;2024-03-29T02:17:27;94969.25;;;11.72;47.39
85458;BME280;75848;42.706;23.292;2024-03-29T02:20:39;94988.91;;;11.64;47.87
85458;BME280;75848;42.706;23.292;2024-03-29T02:23:36;94969.78;;;11.51;47.99
85458;BME280;75848;42.706;23.292;2024-03-29T02:26:33;94996.84;;;11.71;47.95
85458;BME280;75848;42.706;23.292;2024-03-29T02:29:30;95016.84;;;11.64;48.17
85458;BME280;75848;42.706;23.292;2024-03-29T02:35:26;95030.44;;;11.64;47.84
85458;BME280;75848;42.706;23.292;2024-03-29T02:38:14;95021.69;;;11.57;48.59
85458;BME280;75848;42.706;23.292;2024-03-29T02:43:23;95028.22;;;11.43;48.46
85458;BME280;75848;42.706;23.292;2024-03-29T02:45:52;95007.00;;;11.22;48.83
85458;BME280;75848;42.706;23.292;2024-03-29T02:48:27;95034.75;;;11.46;49.08
85458;BME280;75848;42.706;23.292;2024-03-29T02:51:20;95024.66;;;11.46;48.39
85458;BME280;75848;42.706;23.292;2024-03-29T02:54:01;95038.72;;;11.57;48.71
85458;BME280;75848;42.706;23.292;2024-03-29T02:56:54;95042.28;;;11.54;48.85
85458;BME280;75848;42.706;23.292;2024-03-29T02:59:31;95016.72;;;11.23;49.49
85458;BME280;75848;42.706;23.292;2024-03-29T03:01:58;95055.91;;;11.38;49.38
85458;BME280;75848;42.706;23.292;2024-03-29T03:04:25;95039.44;;;11.29;50.06
85458;BME280;75848;42.706;23.292;2024-03-29T03:06:54;95030.97;;;11.11;49.98
85458;BME280;75848;42.706;23.292;2024-03-29T03:09:47;95037.66;;;11.07;50.03
85458;BME280;75848;42.706;23.292;2024-03-29T03:15:52;95065.97;;;11.06;50.48
85458;BME280;75848;42.706;23.292;2024-03-29T03:18:43;95056.00;;;11.03;50.28
85458;BME280;75848;42.706;23.292;2024-03-29T03:21:14;95062.28;;;11.00;49.96
85458;BME280;75848;42.706;23.292;2024-03-29T03:23:41;95078.41;;;11.07;50.64
85458;BME280;75848;42.706;23.292;2024-03-29T03:26:10;95081.69;;;10.98;50.65
85458;BME280;75848;42.706;23.292;2024-03-29T03:28:53;95054.84;;;10.84;50.43
85458;BME280;75848;42.706;23.292;2024-03-29T03:34:05;95066.25;;;10.95;50.28
85458;BME280;75848;42.706;23.292;2024-03-29T03:41:51;95092.44;;;10.86;50.86
85458;BME280;75848;42.706;23.292;2024-03-29T03:44:59;95109.44;;;10.70;51.61
85458;BME280;75848;42.706;23.292;2024-03-29T03:51:19;95124.59;;;10.87;51.48
85458;BME280;75848;42.706;23.292;2024-03-29T03:59:37;95136.09;;;10.75;51.72
85458;BME280;75848;42.706;23.292;2024-03-29T04:02:29;95115.22;;;10.72;51.71
85458;BME280;75848;42.706;23.292;2024-03-29T04:05:00;95113.34;;;10.69;51.43
85458;BME280;75848;42.706;23.292;2024-03-29T04:07:32;95126.22;;;10.65;51.44
85458;BME280;75848;42.706;23.292;2024-03-29T04:10:08;95132.06;;;10.63;51.29
85458;BME280;75848;42.706;23.292;2024-03-29T04:12:45;95124.91;;;10.53;51.72
85458;BME280;75848;42.706;23.292;2024-03-29T04:15:16;95137.06;;;10.65;52.48
85458;BME280;75848;42.706;23.292;2024-03-29T04:17:42;95126.63;;;10.63;51.63
85458;BME280;75848;42.706;23.292;2024-03-29T04:20:10;95131.03;;;10.57;51.86
85458;BME280;75848;42.706;23.292;2024-03-29T04:22:36;95144.53;;;10.61;51.63
85458;BME280;75848;42.706;23.292;2024-03-29T04:25:05;95143.47;;;10.74;51.28
85458;BME280;75848;42.706;23.292;2024-03-29T04:27:35;95141.88;;;10.77;51.21
85458;BME280;75848;42.706;23.292;2024-03-29T04:30:04;95162.31;;;10.62;52.33
85458;BME280;75848;42.706;23.292;2024-03-29T04:32:35;95170.00;;;10.67;52.26
85458;BME280;75848;42.706;23.292;2024-03-29T04:35:05;95174.78;;;10.59;51.59
85458;BME280;75848;42.706;23.292;2024-03-29T04:37:38;95178.88;;;10.67;52.26
85458;BME280;75848;42.706;23.292;2024-03-29T04:40:10;95167.75;;;10.82;51.01
85458;BME280;75848;42.706;23.292;2024-03-29T04:42:52;95200.66;;;11.03;50.59
85458;BME280;75848;42.706;23.292;2024-03-29T04:45:36;95192.50;;;11.03;51.47
85458;BME280;75848;42.706;23.292;2024-03-29T04:48:28;95202.03;;;11.11;50.62
85458;BME280;75848;42.706;23.292;2024-03-29T04:51:01;95171.78;;;10.93;50.81
85458;BME280;75848;42.706;23.292;2024-03-29T04:53:42;95213.44;;;11.22;50.42
85458;BME280;75848;42.706;23.292;2024-03-29T04:56:32;95216.59;;;11.37;50.00
85458;BME280;75848;42.706;23.292;2024-03-29T04:59:46;95216.91;;;11.42;50.33
85458;BME280;75848;42.706;23.292;2024-03-29T05:02:48;95222.66;;;11.44;49.94
85458;BME280;75848;42.706;23.292;2024-03-29T05:05:23;95220.44;;;11.39;50.17
85458;BME280;75848;42.706;23.292;2024-03-29T05:07:51;95193.47;;;11.13;50.81
85458;BME280;75848;42.706;23.292;2024-03-29T05:10:41;95191.44;;;11.17;50.16
85458;BME280;75848;42.706;23.292;2024-03-29T05:16:19;95237.50;;;11.75;49.36
85458;BME280;75848;42.706;23.292;2024-03-29T05:18:50;95240.16;;;11.79;49.32
85458;BME280;75848;42.706;23.292;2024-03-29T05:21:16;95248.56;;;11.84;48.92
85458;BME280;75848;42.706;23.292;2024-03-29T05:24:05;95248.16;;;11.86;49.11
85458;BME280;75848;42.706;23.292;2024-03-29T05:26:45;95244.91;;;11.91;49.31
85458;BME280;75848;42.706;23.292;2024-03-29T05:29:12;95226.28;;;11.89;48.38
85458;BME280;75848;42.706;23.292;2024-03-29T05:31:40;95244.66;;;12.17;48.08
85458;BME280;75848;42.706;23.292;2024-03-29T05:34:11;95236.91;;;12.16;47.58
85458;BME280;75848;42.706;23.292;2024-03-29T05:36:59;95265.28;;;12.47;47.76
85458;BME280;75848;42.706;23.292;2024-03-29T05:39:45;95255.41;;;12.53;47.48
85458;BME280;75848;42.706;23.292;2024-03-29T05:42:30;95261.69;;;12.66;46.69
85458;BME280;75848;42.706;23.292;2024-03-29T05:45:23;95236.56;;;12.46;46.84
85458;BME280;75848;42.706;23.292;2024-03-29T05:47:53;95257.91;;;12.76;46.91
85458;BME280;75848;42.706;23.292;2024-03-29T05:50:19;95266.91;;;12.89;46.79
85458;BME280;75848;42.706;23.292;2024-03-29T05:52:53;95240.63;;;12.82;46.43
85458;BME280;75848;42.706;23.292;2024-03-29T05:55:37;95251.09;;;13.13;45.83
85458;BME280;75848;42.706;23.292;2024-03-29T05:58:04;95237.66;;;13.47;45.18
85458;BME280;75848;42.706;23.292;2024-03-29T06:00:33;95237.94;;;14.83;42.45
85458;BME280;75848;42.706;23.292;2024-03-29T06:03:08;95249.66;;;16.76;38.17
85458;BME280;75848;42.706;23.292;2024-03-29T06:05:40;95251.72;;;18.45;34.63
85458;BME280;75848;42.706;23.292;2024-03-29T06:08:25;95273.34;;;20.54;31.59
85458;BME280;75848;42.706;23.292;2024-03-29T06:11:13;95264.44;;;21.90;28.58
85458;BME280;75848;42.706;23.292;2024-03-29T06:13:44;95270.38;;;22.82;27.79
85458;BME280;75848;42.706;23.292;2024-03-29T06:16:37;95256.13;;;23.70;25.93
85458;BME280;75848;42.706;23.292;2024-03-29T06:19:23;95247.53;;;23.46;25.22
85458;BME280;75848;42.706;23.292;2024-03-29T06:21:56;95258.41;;;23.82;25.23
85458;BME280;75848;42.706;23.292;2024-03-29T06:24:35;95264.00;;;24.04;24.82
85458;BME280;75848;42.706;23.292;2024-03-29T06:27:09;95269.78;;;23.90;24.94
85458;BME280;75848;42.706;23.292;2024-03-29T06:29:42;95252.78;;;23.49;25.11
85458;BME280;75848;42.706;23.292;2024-03-29T06:32:13;95252.25;;;22.75;26.05
85458;BME280;75848;42.706;23.292;2024-03-29T06:35:03;95261.41;;;22.19;26.12
85458;BME280;75848;42.706;23.292;2024-03-29T06:37:35;95270.25;;;22.60;25.99
85458;BME280;75848;42.706;23.292;2024-03-29T06:40:07;95280.47;;;22.85;25.22
85458;BME280;75848;42.706;23.292;2024-03-29T06:42:47;95266.19;;;21.68;26.70
85458;BME280;75848;42.706;23.292;2024-03-29T06:45:14;95267.88;;;21.85;27.11
85458;BME280;75848;42.706;23.292;2024-03-29T06:47:45;95261.94;;;22.23;27.11
85458;BME280;75848;42.706;23.292;2024-03-29T06:50:22;95266.31;;;22.72;26.39
85458;BME280;75848;42.706;23.292;2024-03-29T06:52:55;95267.81;;;23.21;26.00
85458;BME280;75848;42.706;23.292;2024-03-29T06:55:32;95257.75;;;22.70;26.02
85458;BME280;75848;42.706;23.292;2024-03-29T06:58:39;95287.16;;;22.36;26.91
85458;BME280;75848;42.706;23.292;2024-03-29T07:01:10;95286.38;;;21.99;26.90
85458;BME280;75848;42.706;23.292;2024-03-29T07:03:43;95287.63;;;21.53;28.37
85458;BME280;75848;42.706;23.292;2024-03-29T07:06:14;95295.81;;;21.87;27.71
85458;BME280;75848;42.706;23.292;2024-03-29T07:08:42;95270.38;;;22.45;26.90
85458;BME280;75848;42.706;23.292;2024-03-29T07:11:16;95287.84;;;22.57;26.41
85458;BME280;75848;42.706;23.292;2024-03-29T07:13:50;95286.94;;;22.40;26.64
85458;BME280;75848;42.706;23.292;2024-03-29T07:16:18;95296.88;;;22.52;26.67
85458;BME280;75848;42.706;23.292;2024-03-29T07:18:48;95293.75;;;22.75;26.41
85458;BME280;75848;42.706;23.292;2024-03-29T07:21:16;95306.75;;;22.64;26.54
85458;BME280;75848;42.706;23.292;2024-03-29T07:23:43;95286.59;;;23.00;25.84
85458;BME280;75848;42.706;23.292;2024-03-29T07:26:15;95306.47;;;22.31;26.15
85458;BME280;75848;42.706;23.292;2024-03-29T07:28:46;95308.53;;;22.36;26.42
85458;BME280;75848;42.706;23.292;2024-03-29T07:31:19;95300.31;;;22.83;26.55
85458;BME280;75848;42.706;23.292;2024-03-29T07:33:50;95299.59;;;23.36;26.35
85458;BME280;75848;42.706;23.292;2024-03-29T07:36:22;95277.75;;;22.96;26.11
85458;BME280;75848;42.706;23.292;2024-03-29T07:38:52;95300.06;;;22.45;26.39
85458;BME280;75848;42.706;23.292;2024-03-29T07:41:17;95288.84;;;22.23;27.64
85458;BME280;75848;42.706;23.292;2024-03-29T07:43:57;95288.63;;;22.63;26.46
85458;BME280;75848;42.706;23.292;2024-03-29T07:46:35;95289.22;;;22.78;26.16
85458;BME280;75848;42.706;23.292;2024-03-29T07:49:03;95274.22;;;22.95;26.31
85458;BME280;75848;42.706;23.292;2024-03-29T07:51:30;95279.97;;;23.34;25.58
85458;BME280;75848;42.706;23.292;2024-03-29T07:53:57;95284.31;;;23.57;25.04
85458;BME280;75848;42.706;23.292;2024-03-29T07:56:24;95280.25;;;23.53;25.08
85458;BME280;75848;42.706;23.292;2024-03-29T07:58:58;95291.88;;;23.62;25.24
85458;BME280;75848;42.706;23.292;2024-03-29T08:01:26;95290.16;;;23.17;25.47
85458;BME280;75848;42.706;23.292;2024-03-29T08:03:53;95299.97;;;21.77;27.55
85458;BME280;75848;42.706;23.292;2024-03-29T08:06:21;95299.19;;;21.31;28.49
85458;BME280;75848;42.706;23.292;2024-03-29T08:08:50;95285.22;;;21.86;28.25
85458;BME280;75848;42.706;23.292;2024-03-29T08:11:19;95288.56;;;22.21;27.46
85458;BME280;75848;42.706;23.292;2024-03-29T08:13:46;95289.88;;;23.04;26.30
85458;BME280;75848;42.706;23.292;2024-03-29T08:16:17;95285.78;;;23.42;25.71
85458;BME280;75848;42.706;23.292;2024-03-29T08:18:48;95282.25;;;23.36;26.70
85458;BME280;75848;42.706;23.292;2024-03-29T08:21:14;95263.69;;;22.99;27.28
85458;BME280;75848;42.706;23.292;2024-03-29T08:23:43;95282.72;;;23.34;26.39
85458;BME280;75848;42.706;23.292;2024-03-29T08:26:28;95265.69;;;23.63;25.23
85458;BME280;75848;42.706;23.292;2024-03-29T08:28:55;95258.38;;;23.66;25.83
85458;BME280;75848;42.706;23.292;2024-03-29T08:31:26;95252.75;;;23.27;25.93
85458;BME280;75848;42.706;23.292;2024-03-29T08:33:54;95257.22;;;23.19;26.39
85458;BME280;75848;42.706;23.292;2024-03-29T08:36:20;95256.28;;;23.33;26.81
85458;BME280;75848;42.706;23.292;2024-03-29T08:38:50;95260.47;;;23.12;26.93
85458;BME280;75848;42.706;23.292;2024-03-29T08:41:19;95244.03;;;23.56;26.44
85458;BME280;75848;42.706;23.292;2024-03-29T08:43:53;95240.03;;;23.74;25.34
85458;BME280;75848;42.706;23.292;2024-03-29T08:46:21;95240.13;;;23.21;25.86
85458;BME280;75848;42.706;23.292;2024-03-29T08:48:49;95229.19;;;22.95;25.81
85458;BME280;75848;42.706;23.292;2024-03-29T08:51:21;95248.75;;;23.39;26.34
85458;BME280;75848;42.706;23.292;2024-03-29T08:53:54;95243.28;;;23.83;26.33
85458;BME280;75848;42.706;23.292;2024-03-29T08:56:27;95235.28;;;23.10;26.45
85458;BME280;75848;42.706;23.292;2024-03-29T08:58:57;95222.03;;;23.25;25.24
85458;BME280;75848;42.706;23.292;2024-03-29T09:01:33;95228.91;;;23.52;27.02
85458;BME280;75848;42.706;23.292;2024-03-29T09:04:03;95231.19;;;23.64;25.15
85458;BME280;75848;42.706;23.292;2024-03-29T09:06:36;95231.47;;;23.88;24.56
85458;BME280;75848;42.706;23.292;2024-03-29T09:09:07;95215.59;;;24.11;23.37
85458;BME280;75848;42.706;23.292;2024-03-29T09:11:33;95217.63;;;24.21;24.24
85458;BME280;75848;42.706;23.292;2024-03-29T09:13:59;95212.25;;;23.41;23.97
85458;BME280;75848;42.706;23.292;2024-03-29T09:16:30;95211.75;;;23.37;24.17
85458;BME280;75848;42.706;23.292;2024-03-29T09:18:57;95201.94;;;23.41;23.35
85458;BME280;75848;42.706;23.292;2024-03-29T09:21:27;95205.97;;;23.51;23.06
85458;BME280;75848;42.706;23.292;2024-03-29T09:23:58;95208.06;;;24.06;22.40
85458;BME280;75848;42.706;23.292;2024-03-29T09:26:27;95198.22;;;24.21;22.79
85458;BME280;75848;42.706;23.292;2024-03-29T09:28:54;95202.47;;;23.62;23.80
85458;BME280;75848;42.706;23.292;2024-03-29T09:31:19;95173.97;;;23.28;24.21
85458;BME280;75848;42.706;23.292;2024-03-29T09:33:45;95193.75;;;22.99;24.09
85458;BME280;75848;42.706;23.292;2024-03-29T09:36:14;95174.50;;;22.68;24.47
85458;BME280;75848;42.706;23.292;2024-03-29T09:38:40;95158.91;;;22.70;24.44
85458;BME280;75848;42.706;23.292;2024-03-29T09:41:11;95162.97;;;22.80;23.74
85458;BME280;75848;42.706;23.292;2024-03-29T09:43:40;95164.53;;;22.98;24.06
85458;BME280;75848;42.706;23.292;2024-03-29T09:46:09;95150.78;;;22.50;25.05
85458;BME280;75848;42.706;23.292;2024-03-29T09:48:37;95148.75;;;22.51;25.40
85458;BME280;75848;42.706;23.292;2024-03-29T09:51:06;95151.16;;;22.80;25.66
85458;BME280;75848;42.706;23.292;2024-03-29T09:53:36;95144.94;;;23.07;24.62
85458;BME280;75848;42.706;23.292;2024-03-29T09:56:07;95151.22;;;23.02;23.99
85458;BME280;75848;42.706;23.292;2024-03-29T09:58:36;95161.47;;;22.85;24.42
85458;BME280;75848;42.706;23.292;2024-03-29T10:01:09;95138.75;;;22.64;24.38
85458;BME280;75848;42.706;23.292;2024-03-29T10:03:55;95152.31;;;22.57;24.81
85458;BME280;75848;42.706;23.292;2024-03-29T10:06:24;95139.38;;;22.37;25.71
85458;BME280;75848;42.706;23.292;2024-03-29T10:08:56;95138.41;;;22.99;25.27
85458;BME280;75848;42.706;23.292;2024-03-29T10:11:24;95145.03;;;23.40;24.80
85458;BME280;75848;42.706;23.292;2024-03-29T10:13:55;95126.16;;;23.83;25.03
85458;BME280;75848;42.706;23.292;2024-03-29T10:16:22;95141.00;;;23.74;24.86
85458;BME280;75848;42.706;23.292;2024-03-29T10:18:50;95134.63;;;23.13;25.51
85458;BME280;75848;42.706;23.292;2024-03-29T10:21:16;95136.47;;;23.44;24.88
85458;BME280;75848;42.706;23.292;2024-03-29T10:23:41;95135.94;;;23.23;25.09
85458;BME280;75848;42.706;23.292;2024-03-29T10:26:18;95146.81;;;23.43;25.30
85458;BME280;75848;42.706;23.292;2024-03-29T10:28:46;95144.53;;;23.53;24.92
85458;BME280;75848;42.706;23.292;2024-03-29T10:31:15;95135.34;;;22.91;25.21
85458;BME280;75848;42.706;23.292;2024-03-29T10:33:44;95140.97;;;23.30;25.12
85458;BME280;75848;42.706;23.292;2024-03-29T10:36:17;95146.97;;;23.18;25.39
85458;BME280;75848;42.706;23.292;2024-03-29T10:38:45;95141.47;;;23.23;25.52
85458;BME280;75848;42.706;23.292;2024-03-29T10:41:14;95129.59;;;23.12;25.60
85458;BME280;75848;42.706;23.292;2024-03-29T10:43:40;95117.25;;;23.13;25.78
85458;BME280;75848;42.706;23.292;2024-03-29T10:46:14;95134.97;;;23.48;25.41
85458;BME280;75848;42.706;23.292;2024-03-29T10:48:43;95126.16;;;23.61;24.64
85458;BME280;75848;42.706;23.292;2024-03-29T10:51:11;95122.38;;;23.58;24.50
85458;BME280;75848;42.706;23.292;2024-03-29T10:53:39;95115.59;;;23.43;25.64
85458;BME280;75848;42.706;23.292;2024-03-29T10:56:10;95125.38;;;23.49;26.09
85458;BME280;75848;42.706;23.292;2024-03-29T10:58:44;95116.56;;;23.51;25.71
85458;BME280;75848;42.706;23.292;2024-03-29T11:01:14;95115.81;;;23.39;26.17
85458;BME280;75848;42.706;23.292;2024-03-29T11:04:06;95109.28;;;23.37;25.42
85458;BME280;75848;42.706;23.292;2024-03-29T11:06:34;95106.94;;;23.02;25.60
85458;BME280;75848;42.706;23.292;2024-03-29T11:09:04;95108.78;;;23.27;26.05
85458;BME280;75848;42.706;23.292;2024-03-29T11:11:32;95112.72;;;22.93;26.44
85458;BME280;75848;42.706;23.292;2024-03-29T11:14:05;95118.03;;;23.08;26.52
85458;BME280;75848;42.706;23.292;2024-03-29T11:16:34;95090.66;;;23.48;25.43
85458;BME280;75848;42.706;23.292;2024-03-29T11:19:02;95098.69;;;23.35;26.10
85458;BME280;75848;42.706;23.292;2024-03-29T11:21:32;95091.56;;;22.90;26.88
85458;BME280;75848;42.706;23.292;2024-03-29T11:24:05;95102.16;;;23.02;26.40
85458;BME280;75848;42.706;23.292;2024-03-29T11:27:22;95102.47;;;23.38;26.91
85458;BME280;75848;42.706;23.292;2024-03-29T11:29:49;95086.38;;;23.25;26.28
85458;BME280;75848;42.706;23.292;2024-03-29T11:32:34;95095.66;;;23.17;26.48
85458;BME280;75848;42.706;23.292;2024-03-29T11:34:59;95097.72;;;23.27;26.97
85458;BME280;75848;42.706;23.292;2024-03-29T11:37:30;95099.47;;;23.36;27.21
85458;BME280;75848;42.706;23.292;2024-03-29T11:39:58;95093.41;;;23.48;26.66
85458;BME280;75848;42.706;23.292;2024-03-29T11:42:43;95090.63;;;23.15;26.90
85458;BME280;75848;42.706;23.292;2024-03-29T11:45:09;95091.34;;;23.05;27.42
85458;BME280;75848;42.706;23.292;2024-03-29T11:47:41;95090.13;;;23.28;26.73
85458;BME280;75848;42.706;23.292;2024-03-29T11:50:08;95086.88;;;23.29;26.23
85458;BME280;75848;42.706;23.292;2024-03-29T11:52:34;95080.84;;;23.42;26.28
85458;BME280;75848;42.706;23.292;2024-03-29T11:55:02;95080.59;;;23.40;26.95
85458;BME280;75848;42.706;23.292;2024-03-29T11:57:29;95079.06;;;23.33;27.30
85458;BME280;75848;42.706;23.292;2024-03-29T11:59:57;95071.25;;;23.15;26.97
85458;BME280;75848;42.706;23.292;2024-03-29T12:02:23;95070.72;;;23.06;27.14
85458;BME280;75848;42.706;23.292;2024-03-29T12:04:51;95067.97;;;23.17;27.62
85458;BME280;75848;42.706;23.292;2024-03-29T12:07:21;95054.34;;;22.96;26.01
85458;BME280;75848;42.706;23.292;2024-03-29T12:09:48;95049.88;;;23.27;26.52
85458;BME280;75848;42.706;23.292;2024-03-29T12:12:14;95065.97;;;23.39;27.74
85458;BME280;75848;42.706;23.292;2024-03-29T12:14:43;95061.69;;;23.55;26.67
85458;BME280;75848;42.706;23.292;2024-03-29T12:17:11;95064.47;;;23.60;26.10
85458;BME280;75848;42.706;23.292;2024-03-29T12:19:38;95053.66;;;23.46;25.70
85458;BME280;75848;42.706;23.292;2024-03-29T12:22:07;95057.16;;;23.57;26.00
85458;BME280;75848;42.706;23.292;2024-03-29T12:24:36;95058.91;;;23.66;25.38
85458;BME280;75848;42.706;23.292;2024-03-29T12:27:04;95048.59;;;23.50;25.89
85458;BME280;75848;42.706;23.292;2024-03-29T12:29:30;95057.16;;;23.68;25.38
85458;BME280;75848;42.706;23.292;2024-03-29T12:32:00;95058.38;;;23.73;24.51
85458;BME280;75848;42.706;23.292;2024-03-29T12:34:26;95041.50;;;23.82;25.83
85458;BME280;75848;42.706;23.292;2024-03-29T12:36:51;95053.84;;;23.97;24.20
85458;BME280;75848;42.706;23.292;2024-03-29T12:39:21;95053.06;;;24.02;24.34
85458;BME280;75848;42.706;23.292;2024-03-29T12:41:48;95040.50;;;23.85;24.92
85458;BME280;75848;42.706;23.292;2024-03-29T12:44:15;95038.97;;;23.89;24.51
85458;BME280;75848;42.706;23.292;2024-03-29T12:46:41;95050.06;;;23.89;23.92
85458;BME280;75848;42.706;23.292;2024-03-29T12:49:10;95051.84;;;23.81;23.77
85458;BME280;75848;42.706;23.292;2024-03-29T12:51:43;95041.72;;;24.06;24.24
85458;BME280;75848;42.706;23.292;2024-03-29T12:54:12;95039.41;;;24.21;23.18
85458;BME280;75848;42.706;23.292;2024-03-29T12:56:39;95044.44;;;24.22;23.17
85458;BME280;75848;42.706;23.292;2024-03-29T12:59:07;95048.66;;;24.34;23.23
85458;BME280;75848;42.706;23.292;2024-03-29T13:01:37;95050.72;;;24.34;23.17
85458;BME280;75848;42.706;23.292;2024-03-29T13:04:04;95048.19;;;24.30;23.69
85458;BME280;75848;42.706;23.292;2024-03-29T13:06:30;95040.34;;;24.40;23.25
85458;BME280;75848;42.706;23.292;2024-03-29T13:09:01;95038.06;;;24.44;23.05
85458;BME280;75848;42.706;23.292;2024-03-29T13:11:28;95029.13;;;24.10;23.57
85458;BME280;75848;42.706;23.292;2024-03-29T13:14:15;95031.63;;;24.08;23.66
85458;BME280;75848;42.706;23.292;2024-03-29T13:16:42;95030.09;;;24.24;23.43
85458;BME280;75848;42.706;23.292;2024-03-29T13:19:09;95017.06;;;23.91;23.11
85458;BME280;75848;42.706;23.292;2024-03-29T13:21:37;95011.03;;;23.87;24.22
85458;BME280;75848;42.706;23.292;2024-03-29T13:24:06;95021.56;;;23.89;21.29
85458;BME280;75848;42.706;23.292;2024-03-29T13:26:33;95020.59;;;23.81;21.23
85458;BME280;75848;42.706;23.292;2024-03-29T13:29:03;95023.59;;;23.88;21.54
85458;BME280;75848;42.706;23.292;2024-03-29T13:31:28;95025.09;;;23.89;21.21
85458;BME280;75848;42.706;23.292;2024-03-29T13:33:55;95029.38;;;24.01;20.30
85458;BME280;75848;42.706;23.292;2024-03-29T13:36:32;95021.31;;;24.09;21.50
85458;BME280;75848;42.706;23.292;2024-03-29T13:38:59;95028.00;;;24.35;20.51
85458;BME280;75848;42.706;23.292;2024-03-29T13:41:26;95019.09;;;24.48;19.91
85458;BME280;75848;42.706;23.292;2024-03-29T13:43:53;95008.19;;;24.09;20.50
85458;BME280;75848;42.706;23.292;2024-03-29T13:46:26;95021.44;;;24.33;20.45
85458;BME280;75848;42.706;23.292;2024-03-29T13:48:51;95028.38;;;24.67;20.48
85458;BME280;75848;42.706;23.292;2024-03-29T13:51:17;95020.72;;;24.78;20.18
85458;BME280;75848;42.706;23.292;2024-03-29T13:53:43;95023.75;;;24.80;20.32
85458;BME280;75848;42.706;23.292;2024-03-29T13:56:09;95018.09;;;24.97;20.23
85458;BME280;75848;42.706;23.292;2024-03-29T13:58:34;95013.25;;;25.03;20.25
85458;BME280;75848;42.706;23.292;2024-03-29T14:01:03;95006.69;;;25.01;19.52